Terminal Aerodrome Forecast
Issued by NWS

Home | Current Version | Previous Version | Text Only | Print | Product List | Glossary On
Versions: 1 2 3 4 5 6 7 8 9 10 11 12 13 14 15 16 17 18 19 20 21 22
000
FTUS44 KLZK 191300 AAA
TAFBPK
TAF AMD
KBPK 191323Z 1913/2012 VRB03KT P6SM SCT006 OVC015
      TEMPO 1913/1915 OVC006
     FM191800 29006KT P6SM BKN035
     FM192000 25004KT P6SM VCTS BKN035CB OVC150
     FM200200 30010KT 5SM TSRA BKN015CB OVC070
     FM200600 29009G20KT P6SM BKN020 OVC100=

USA.gov is the U.S. government's official web portal to all federal, state and local government web resources and services.